Time;durP1;ratioP1;P1;durP2;ratioP2;P2;SDS_P1;SDS_P2;PMS_P1;PMS_P2;Temp;Humidity;BMP_temperature;BMP_pressure;BME280_temperature;BME280_humidity;BME280_pressure;Samples;Min_cycle;Max_cycle;Signal;HPM_P1;HPM_P2
2021/09/05 00:01:44;;;;;;;38.17;21.60;;;;;;;;;;5139146;27;20357;-81
2021/09/05 00:04:11;;;;;;;37.40;19.98;;;;;;;;;;5121504;27;20046;-82
2021/09/05 00:06:38;;;;;;;41.17;21.60;;;;;;;;;;5137136;27;20212;-83
2021/09/05 00:09:08;;;;;;;39.45;20.48;;;;;;;;;;5120766;27;20141;-84
2021/09/05 00:11:35;;;;;;;39.88;21.20;;;;;;;;;;5139520;27;20409;-84
2021/09/05 00:14:02;;;;;;;39.20;20.55;;;;;;;;;;5140447;27;20051;-84
2021/09/05 00:16:30;;;;;;;41.47;21.83;;;;;;;;;;5121839;27;20039;-83
2021/09/05 00:18:57;;;;;;;43.25;22.48;;;;;;;;;;5121960;27;20047;-83
2021/09/05 00:21:25;;;;;;;38.53;21.60;;;;;;;;;;5147726;27;20067;-83
2021/09/05 00:23:51;;;;;;;43.25;22.88;;;;;;;;;;5141592;27;20059;-83
2021/09/05 00:26:19;;;;;;;43.65;23.30;;;;;;;;;;5102521;28;20077;-83
2021/09/05 00:28:45;;;;;;;48.15;24.38;;;;;;;;;;5101162;28;20047;-84
2021/09/05 00:31:12;;;;;;;42.80;22.83;;;;;;;;;;5103213;28;20044;-83
2021/09/05 00:33:39;;;;;;;43.05;23.80;;;;;;;;;;5108679;28;20052;-83
2021/09/05 00:36:05;;;;;;;40.55;21.77;;;;;;;;;;5112832;28;20044;-84
2021/09/05 00:38:37;;;;;;;45.92;22.38;;;;;;;;;;5111495;28;20040;-83
2021/09/05 00:41:07;;;;;;;49.88;24.45;;;;;;;;;;5095365;28;20089;-83
2021/09/05 00:43:53;;;;;;;54.90;24.77;;;;;;;;;;5083981;28;20063;-84
2021/09/05 00:46:20;;;;;;;42.65;23.08;;;;;;;;;;5086196;28;20485;-83
2021/09/05 00:48:47;;;;;;;42.97;24.30;;;;;;;;;;5119496;28;20273;-83
2021/09/05 00:51:14;;;;;;;54.78;26.08;;;;;;;;;;5101534;28;20047;-83
2021/09/05 00:53:41;;;;;;;42.78;22.38;;;;;;;;;;5101548;28;20120;-83
2021/09/05 00:56:09;;;;;;;52.60;25.38;;;;;;;;;;5119132;28;20079;-83
2021/09/05 00:58:38;;;;;;;55.58;25.02;;;;;;;;;;5100509;28;20127;-83
2021/09/05 01:01:06;;;;;;;47.33;23.75;;;;;;;;;;5119929;28;20051;-84
2021/09/05 01:03:33;;;;;;;51.65;26.75;;;;;;;;;;5130870;27;20036;-83
2021/09/05 01:05:59;;;;;;;68.03;28.58;;;;;;;;;;5134757;27;20043;-83
2021/09/05 01:08:35;;;;;;;54.75;26.90;;;;;;;;;;5099604;28;20309;-83
2021/09/05 01:11:03;;;;;;;50.75;24.92;;;;;;;;;;5117127;28;20059;-83
2021/09/05 01:13:30;;;;;;;51.58;26.58;;;;;;;;;;5098994;28;20071;-83
2021/09/05 01:15:56;;;;;;;53.70;25.95;;;;;;;;;;5099077;28;20079;-83
2021/09/05 01:18:23;;;;;;;59.92;27.85;;;;;;;;;;5099547;28;20067;-83
2021/09/05 01:20:50;;;;;;;57.80;27.65;;;;;;;;;;5099134;28;20047;-84
2021/09/05 01:23:17;;;;;;;57.33;27.33;;;;;;;;;;5099787;28;20043;-84
2021/09/05 01:25:43;;;;;;;62.40;27.67;;;;;;;;;;5117006;28;20085;-83
2021/09/05 01:28:11;;;;;;;59.22;27.05;;;;;;;;;;5118251;28;20463;-83
2021/09/05 01:30:38;;;;;;;61.10;30.17;;;;;;;;;;5118021;28;20385;-83
2021/09/05 01:33:05;;;;;;;66.63;29.33;;;;;;;;;;5120640;28;20058;-84
2021/09/05 01:35:32;;;;;;;53.25;27.50;;;;;;;;;;5098384;28;20055;-83
2021/09/05 01:37:59;;;;;;;65.00;29.05;;;;;;;;;;5116779;28;20039;-84
2021/09/05 01:40:26;;;;;;;65.43;28.60;;;;;;;;;;5116552;28;20058;-83
2021/09/05 01:42:53;;;;;;;57.28;28.05;;;;;;;;;;5098560;28;20387;-83
2021/09/05 01:45:20;;;;;;;61.08;28.25;;;;;;;;;;5097435;28;20044;-83
2021/09/05 01:47:46;;;;;;;57.05;27.83;;;;;;;;;;5116584;28;20051;-84
2021/09/05 01:50:13;;;;;;;66.15;28.58;;;;;;;;;;5123583;28;20047;-83
2021/09/05 01:52:43;;;;;;;62.15;28.52;;;;;;;;;;5113902;28;20161;-83
2021/09/05 01:55:11;;;;;;;56.65;27.45;;;;;;;;;;5127524;27;20051;-83
2021/09/05 01:57:37;;;;;;;54.65;26.65;;;;;;;;;;5118916;28;20071;-83
2021/09/05 02:00:05;;;;;;;57.60;27.13;;;;;;;;;;5119427;28;20104;-83
2021/09/05 02:02:31;;;;;;;61.28;28.30;;;;;;;;;;5099178;28;20074;-83
2021/09/05 02:04:59;;;;;;;57.88;28.38;;;;;;;;;;5119918;28;20047;-83
2021/09/05 02:07:26;;;;;;;50.50;27.05;;;;;;;;;;5135346;27;20083;-83
2021/09/05 02:09:52;;;;;;;61.53;27.30;;;;;;;;;;5135316;27;20070;-83
2021/09/05 02:12:20;;;;;;;55.58;26.05;;;;;;;;;;5106635;28;20095;-82
2021/09/05 02:14:50;;;;;;;52.13;25.77;;;;;;;;;;5113365;28;20217;-83
2021/09/05 02:17:16;;;;;;;70.95;28.45;;;;;;;;;;5112083;28;20044;-83
2021/09/05 02:19:43;;;;;;;54.65;25.40;;;;;;;;;;5110728;28;20062;-82
2021/09/05 02:22:10;;;;;;;56.00;27.45;;;;;;;;;;5096237;28;20134;-83
2021/09/05 02:24:37;;;;;;;52.30;26.05;;;;;;;;;;5080720;28;20054;-84
2021/09/05 02:27:03;;;;;;;51.35;27.13;;;;;;;;;;5082056;28;20066;-83
2021/09/05 02:29:30;;;;;;;47.53;25.00;;;;;;;;;;5098927;28;20040;-83
2021/09/05 02:31:58;;;;;;;52.13;25.38;;;;;;;;;;5083772;28;20086;-83
2021/09/05 02:34:24;;;;;;;56.38;26.80;;;;;;;;;;5100734;28;20085;-83
2021/09/05 02:36:51;;;;;;;50.88;25.25;;;;;;;;;;5083741;28;20120;-83
2021/09/05 02:39:18;;;;;;;48.85;24.52;;;;;;;;;;5100274;28;20066;-83
2021/09/05 02:41:45;;;;;;;52.95;25.92;;;;;;;;;;5108815;28;20111;-81
2021/09/05 02:44:11;;;;;;;48.55;25.25;;;;;;;;;;5121956;28;20138;-81
2021/09/05 02:46:48;;;;;;;60.40;27.13;;;;;;;;;;5113949;28;20076;-81
2021/09/05 02:49:14;;;;;;;52.58;25.42;;;;;;;;;;5101480;28;20078;-81
2021/09/05 02:51:42;;;;;;;44.63;24.35;;;;;;;;;;5111962;28;20382;-81
2021/09/05 02:54:09;;;;;;;47.33;24.63;;;;;;;;;;5101153;28;20061;-81
2021/09/05 02:56:36;;;;;;;50.67;25.90;;;;;;;;;;5082926;28;20063;-81
2021/09/05 02:59:03;;;;;;;48.60;23.65;;;;;;;;;;5084963;28;20080;-81
2021/09/05 03:01:29;;;;;;;51.47;24.30;;;;;;;;;;5078777;28;20112;-81
2021/09/05 03:04:03;;;;;;;50.28;25.58;;;;;;;;;;5084099;28;20049;-81
2021/09/05 03:06:30;;;;;;;54.22;25.90;;;;;;;;;;5084096;28;20048;-81
2021/09/05 03:08:56;;;;;;;51.40;26.27;;;;;;;;;;5085602;28;20444;-81
2021/09/05 03:11:23;;;;;;;49.42;25.60;;;;;;;;;;5083868;28;20562;-81
2021/09/05 03:13:50;;;;;;;52.38;24.83;;;;;;;;;;5090619;28;20059;-83
2021/09/05 03:16:17;;;;;;;49.05;25.48;;;;;;;;;;5099006;28;20052;-78
2021/09/05 03:18:43;;;;;;;53.58;24.55;;;;;;;;;;5082313;28;20059;-78
2021/09/05 03:21:10;;;;;;;51.55;24.83;;;;;;;;;;5079356;28;20059;-79
2021/09/05 03:23:53;;;;;;;50.17;25.77;;;;;;;;;;5094805;28;20058;-79
2021/09/05 03:26:19;;;;;;;51.08;23.88;;;;;;;;;;5098958;28;20048;-78
2021/09/05 03:28:46;;;;;;;48.25;23.85;;;;;;;;;;5098791;28;20048;-79
2021/09/05 03:31:18;;;;;;;53.30;25.15;;;;;;;;;;5099120;28;20062;-79
2021/09/05 03:33:47;;;;;;;51.08;23.98;;;;;;;;;;5099936;28;20059;-78
2021/09/05 03:36:13;;;;;;;51.03;24.85;;;;;;;;;;5097172;28;20447;-79
2021/09/05 03:38:47;;;;;;;46.95;24.00;;;;;;;;;;5099718;28;20139;-79
2021/09/05 03:41:13;;;;;;;46.85;23.05;;;;;;;;;;5085587;28;20055;-79
2021/09/05 03:43:42;;;;;;;51.42;25.45;;;;;;;;;;5082885;28;20087;-78
2021/09/05 03:46:24;;;;;;;52.65;25.25;;;;;;;;;;5103847;28;20166;-79
2021/09/05 03:48:52;;;;;;;52.00;24.63;;;;;;;;;;5110648;28;20112;-79
2021/09/05 03:51:19;;;;;;;53.17;25.63;;;;;;;;;;5088078;28;20246;-79
2021/09/05 03:53:49;;;;;;;52.05;22.50;;;;;;;;;;5099972;28;20048;-80
2021/09/05 03:56:18;;;;;;;52.85;24.48;;;;;;;;;;5112307;28;20142;-82
2021/09/05 03:58:44;;;;;;;56.08;23.77;;;;;;;;;;5117001;28;20110;-82
2021/09/05 04:01:12;;;;;;;51.53;24.85;;;;;;;;;;5130923;28;20126;-83
2021/09/05 04:03:40;;;;;;;54.35;23.77;;;;;;;;;;5109044;28;20116;-85
2021/09/05 04:06:07;;;;;;;62.90;24.90;;;;;;;;;;5122413;28;20058;-84
2021/09/05 04:08:42;;;;;;;56.15;24.30;;;;;;;;;;5106739;28;20047;-84
2021/09/05 04:11:09;;;;;;;64.60;26.83;;;;;;;;;;5122263;28;20071;-84
2021/09/05 04:13:36;;;;;;;63.90;26.27;;;;;;;;;;5124576;28;20186;-84
2021/09/05 04:16:03;;;;;;;61.10;26.67;;;;;;;;;;5116622;28;20052;-83
2021/09/05 04:18:31;;;;;;;75.05;25.00;;;;;;;;;;5117747;28;20087;-83
2021/09/05 04:20:57;;;;;;;51.05;24.75;;;;;;;;;;5107898;28;20054;-83
2021/09/05 04:23:24;;;;;;;68.30;25.88;;;;;;;;;;5119843;28;20098;-83
2021/09/05 04:25:51;;;;;;;60.95;25.30;;;;;;;;;;5101429;28;20052;-83
2021/09/05 04:28:20;;;;;;;55.47;26.92;;;;;;;;;;5102978;28;20179;-83
2021/09/05 04:30:47;;;;;;;56.83;25.25;;;;;;;;;;5101493;28;20135;-83
2021/09/05 04:33:14;;;;;;;79.78;25.65;;;;;;;;;;5118238;28;20068;-83
2021/09/05 04:35:41;;;;;;;57.47;25.88;;;;;;;;;;5119553;28;20146;-83
2021/09/05 04:38:07;;;;;;;60.63;23.95;;;;;;;;;;5118633;28;20113;-83
2021/09/05 04:40:34;;;;;;;51.97;23.35;;;;;;;;;;5118827;28;20055;-82
2021/09/05 04:43:10;;;;;;;70.43;23.92;;;;;;;;;;5099490;28;20123;-82
2021/09/05 04:45:37;;;;;;;;;;;;;;;;;;5093693;28;20075;-83
2021/09/05 04:48:04;;;;;;;60.78;23.90;;;;;;;;;;5120125;28;20214;-83
2021/09/05 04:50:34;;;;;;;63.40;25.13;;;;;;;;;;5102931;28;20039;-83
2021/09/05 04:53:00;;;;;;;55.92;23.92;;;;;;;;;;5107390;28;20079;-82
2021/09/05 04:55:27;;;;;;;55.50;23.98;;;;;;;;;;5100250;28;20091;-83
2021/09/05 04:57:54;;;;;;;54.67;24.15;;;;;;;;;;5100826;28;20048;-83
2021/09/05 05:00:21;;;;;;;44.30;22.25;;;;;;;;;;5101396;28;20544;-83
2021/09/05 05:02:47;;;;;;;55.22;23.00;;;;;;;;;;5108653;28;20052;-83
2021/09/05 05:05:49;;;;;;;43.65;20.10;;;;;;;;;;5103362;28;20468;-82
2021/09/05 05:08:16;;;;;;;52.70;23.25;;;;;;;;;;5131768;28;20111;-82
2021/09/05 05:10:44;;;;;;;52.85;22.38;;;;;;;;;;5100562;28;20446;-83
2021/09/05 05:13:23;;;;;;;48.03;21.90;;;;;;;;;;5120455;28;20134;-83
2021/09/05 05:15:50;;;;;;;55.88;22.15;;;;;;;;;;5113793;28;20301;-82
2021/09/05 05:18:17;;;;;;;56.38;22.42;;;;;;;;;;5118098;28;20031;-82
2021/09/05 05:24:05;;;;;;;47.92;22.52;;;;;;;;;;5123895;28;20170;-81
2021/09/05 05:26:32;;;;;;;46.40;23.55;;;;;;;;;;5118865;28;20079;-81
2021/09/05 05:32:30;;;;;;;47.15;21.88;;;;;;;;;;5136189;27;20041;-83
2021/09/05 05:34:57;;;;;;;53.35;23.65;;;;;;;;;;5102132;28;20048;-82
2021/09/05 05:37:24;;;;;;;73.63;24.80;;;;;;;;;;5101180;28;20059;-83
2021/09/05 05:39:54;;;;;;;45.45;21.40;;;;;;;;;;5113984;28;20280;-82
2021/09/05 05:42:20;;;;;;;46.97;22.30;;;;;;;;;;5102662;28;20146;-83
2021/09/05 05:44:47;;;;;;;63.40;23.52;;;;;;;;;;5097781;28;20044;-82
2021/09/05 05:47:14;;;;;;;58.13;21.52;;;;;;;;;;5083179;28;20167;-83
2021/09/05 05:49:46;;;;;;;52.92;23.35;;;;;;;;;;5087828;28;20058;-83
2021/09/05 05:52:13;;;;;;;46.25;23.27;;;;;;;;;;5120029;28;20541;-83
2021/09/05 05:54:40;;;;;;;44.63;21.85;;;;;;;;;;5101753;28;20130;-83
2021/09/05 05:57:07;;;;;;;54.92;20.58;;;;;;;;;;5099879;28;20361;-83
2021/09/05 05:59:33;;;;;;;71.30;21.65;;;;;;;;;;5118048;28;20063;-82
2021/09/05 06:02:00;;;;;;;95.00;22.70;;;;;;;;;;5099704;28;20332;-84
2021/09/05 06:04:27;;;;;;;44.28;20.77;;;;;;;;;;5115578;28;20054;-84
2021/09/05 06:06:55;;;;;;;50.80;20.40;;;;;;;;;;5099826;28;20081;-83
2021/09/05 06:09:22;;;;;;;97.53;19.88;;;;;;;;;;5094214;28;20048;-83
2021/09/05 06:11:55;;;;;;;36.05;18.05;;;;;;;;;;5100437;28;20438;-83
2021/09/05 06:14:22;;;;;;;48.53;18.38;;;;;;;;;;5092951;28;20421;-84
2021/09/05 06:16:48;;;;;;;40.42;17.75;;;;;;;;;;5116821;28;20053;-84
2021/09/05 06:19:15;;;;;;;30.45;17.00;;;;;;;;;;5108907;28;20052;-82
2021/09/05 06:21:42;;;;;;;33.20;17.35;;;;;;;;;;5122530;28;20085;-83
2021/09/05 06:24:09;;;;;;;35.08;17.92;;;;;;;;;;5118935;28;20032;-83
2021/09/05 06:26:39;;;;;;;54.15;16.75;;;;;;;;;;5132228;27;20105;-83
2021/09/05 06:29:06;;;;;;;36.67;16.75;;;;;;;;;;5120159;28;20054;-84
2021/09/05 06:31:32;;;;;;;36.17;15.48;;;;;;;;;;5117832;28;20054;-83
2021/09/05 06:34:00;;;;;;;30.35;17.42;;;;;;;;;;5100687;28;20059;-83
2021/09/05 06:36:27;;;;;;;42.95;16.80;;;;;;;;;;5118525;28;20044;-83
2021/09/05 06:38:56;;;;;;;33.30;16.92;;;;;;;;;;5099699;28;20044;-83
2021/09/05 06:41:35;;;;;;;34.63;16.38;;;;;;;;;;5105403;28;20055;-84
2021/09/05 06:44:02;;;;;;;36.20;16.95;;;;;;;;;;5093886;28;20048;-84
2021/09/05 06:46:29;;;;;;;33.03;18.52;;;;;;;;;;5115734;28;20048;-80
2021/09/05 06:48:56;;;;;;;26.60;16.40;;;;;;;;;;5113698;28;20043;-80
2021/09/05 06:51:32;;;;;;;29.33;15.70;;;;;;;;;;5112120;28;20072;-80
2021/09/05 06:53:59;;;;;;;;;;;;;;;;;;5119829;28;20048;-84
2021/09/05 06:56:26;;;;;;;43.95;16.33;;;;;;;;;;5112908;28;19919;-84
2021/09/05 07:05:48;;;;;;;29.83;17.60;;;;;;;;;;5114755;28;20044;-82
2021/09/05 07:08:15;;;;;;;33.05;17.10;;;;;;;;;;5130196;28;20091;-82
2021/09/05 07:10:42;;;;;;;44.55;18.13;;;;;;;;;;5096383;28;20061;-82
2021/09/05 07:13:09;;;;;;;38.22;16.67;;;;;;;;;;5096870;28;20050;-82
2021/09/05 07:15:36;;;;;;;33.28;16.23;;;;;;;;;;5096123;28;20054;-83
2021/09/05 07:18:10;;;;;;;25.30;15.50;;;;;;;;;;5114200;28;20044;-82
2021/09/05 07:20:36;;;;;;;26.42;14.93;;;;;;;;;;5095770;28;20138;-83
2021/09/05 07:23:03;;;;;;;27.20;15.13;;;;;;;;;;5108466;28;20106;-83
2021/09/05 07:25:32;;;;;;;26.15;14.60;;;;;;;;;;5122228;28;20048;-82
2021/09/05 07:27:59;;;;;;;27.02;15.77;;;;;;;;;;5097808;28;20070;-82
2021/09/05 07:30:25;;;;;;;22.30;14.95;;;;;;;;;;5108178;28;20044;-82
2021/09/05 07:32:52;;;;;;;30.75;15.55;;;;;;;;;;5100760;28;20098;-81
2021/09/05 07:35:19;;;;;;;27.17;15.80;;;;;;;;;;5098516;28;20388;-83
2021/09/05 07:37:46;;;;;;;27.60;14.38;;;;;;;;;;5096627;28;20063;-82
2021/09/05 07:40:14;;;;;;;27.70;15.52;;;;;;;;;;5090794;28;20104;-83
2021/09/05 07:42:45;;;;;;;27.55;14.85;;;;;;;;;;5092226;28;20069;-82
2021/09/05 07:45:16;;;;;;;28.73;14.68;;;;;;;;;;5104348;28;20117;-83
2021/09/05 07:47:42;;;;;;;20.88;12.98;;;;;;;;;;5080121;28;20048;-84
2021/09/05 07:50:12;;;;;;;28.10;14.63;;;;;;;;;;5080489;28;20047;-82
2021/09/05 07:52:39;;;;;;;22.95;15.38;;;;;;;;;;5097713;28;20255;-82
2021/09/05 07:55:06;;;;;;;24.63;13.65;;;;;;;;;;5098037;28;20063;-84
2021/09/05 07:57:36;;;;;;;20.88;13.55;;;;;;;;;;5098192;28;20438;-83
2021/09/05 08:00:03;;;;;;;20.83;13.70;;;;;;;;;;5113103;28;20435;-83
2021/09/05 08:02:30;;;;;;;26.80;14.63;;;;;;;;;;5078601;28;20168;-82
2021/09/05 08:04:58;;;;;;;33.45;15.15;;;;;;;;;;5096687;28;20048;-82
2021/09/05 08:07:25;;;;;;;22.17;14.60;;;;;;;;;;5095626;28;20201;-82
2021/09/05 08:09:51;;;;;;;29.42;17.27;;;;;;;;;;5098165;28;20110;-82
2021/09/05 08:12:19;;;;;;;27.77;15.68;;;;;;;;;;5078021;28;20055;-82
2021/09/05 08:14:46;;;;;;;22.08;13.32;;;;;;;;;;5079229;28;20154;-83
2021/09/05 08:17:12;;;;;;;25.88;14.73;;;;;;;;;;5078436;28;20082;-83
2021/09/05 08:19:42;;;;;;;25.67;14.68;;;;;;;;;;5094626;28;20447;-83
2021/09/05 08:22:09;;;;;;;33.50;17.08;;;;;;;;;;5075689;28;20066;-83
2021/09/05 08:24:36;;;;;;;31.73;16.67;;;;;;;;;;5078223;28;20070;-83
2021/09/05 08:27:04;;;;;;;28.42;16.60;;;;;;;;;;5113439;28;20062;-82
2021/09/05 08:29:31;;;;;;;28.27;15.10;;;;;;;;;;5111891;28;20046;-83
2021/09/05 08:31:57;;;;;;;28.17;15.82;;;;;;;;;;5109005;28;20058;-82
2021/09/05 08:34:34;;;;;;;30.73;16.20;;;;;;;;;;5092535;28;20059;-82
2021/09/05 08:37:00;;;;;;;;;;;;;;;;;;5111899;28;20036;-83
2021/09/05 08:39:27;;;;;;;;;;;;;;;;;;5107903;28;19964;-83
2021/09/05 08:42:01;;;;;;;24.02;14.05;;;;;;;;;;5083710;28;19923;-83
2021/09/05 08:44:28;;;;;;;30.67;16.58;;;;;;;;;;5121407;27;20044;-83
2021/09/05 08:46:56;;;;;;;28.95;15.82;;;;;;;;;;5111490;27;20051;-82
2021/09/05 08:49:32;;;;;;;33.90;17.65;;;;;;;;;;5096133;28;20119;-81
2021/09/05 08:51:59;;;;;;;28.30;16.77;;;;;;;;;;5115475;28;20058;-79
2021/09/05 08:54:26;;;;;;;22.83;13.10;;;;;;;;;;5112400;28;20043;-79
2021/09/05 08:56:53;;;;;;;28.20;14.98;;;;;;;;;;5114624;28;20138;-80
2021/09/05 08:59:20;;;;;;;25.67;16.02;;;;;;;;;;5098686;28;20079;-79
2021/09/05 09:01:51;;;;;;;29.63;17.90;;;;;;;;;;5088825;28;20055;-79
2021/09/05 09:04:19;;;;;;;29.08;17.80;;;;;;;;;;5090526;28;20149;-80
2021/09/05 09:06:45;;;;;;;29.45;17.92;;;;;;;;;;5089427;28;20039;-79
2021/09/05 09:09:14;;;;;;;25.30;16.58;;;;;;;;;;5087968;28;20516;-79
2021/09/05 09:11:48;;;;;;;32.20;16.88;;;;;;;;;;5096944;28;20040;-80
2021/09/05 09:14:18;;;;;;;28.45;17.00;;;;;;;;;;5089484;28;20062;-80
2021/09/05 09:16:45;;;;;;;28.77;15.52;;;;;;;;;;5095926;28;20053;-80
2021/09/05 09:19:24;;;;;;;25.10;17.60;;;;;;;;;;5094143;28;20069;-80
2021/09/05 09:21:55;;;;;;;31.83;20.35;;;;;;;;;;5110187;28;20293;-80
2021/09/05 09:24:22;;;;;;;32.88;19.85;;;;;;;;;;5125662;27;20051;-80
2021/09/05 09:26:59;;;;;;;35.70;18.38;;;;;;;;;;5129024;27;20138;-80
2021/09/05 09:29:30;;;;;;;29.70;17.85;;;;;;;;;;5082686;28;20243;-80
2021/09/05 09:31:58;;;;;;;21.77;14.18;;;;;;;;;;5073384;28;20109;-80
2021/09/05 09:34:25;;;;;;;23.85;15.68;;;;;;;;;;5073078;28;20401;-80
2021/09/05 09:36:55;;;;;;;28.73;17.08;;;;;;;;;;5091501;28;20347;-80
2021/09/05 09:39:23;;;;;;;24.35;14.23;;;;;;;;;;5091962;28;20048;-81
2021/09/05 09:41:49;;;;;;;22.92;13.70;;;;;;;;;;5075610;28;20040;-80
2021/09/05 09:44:16;;;;;;;21.17;14.40;;;;;;;;;;5096518;28;20044;-80
2021/09/05 09:46:46;;;;;;;23.65;14.13;;;;;;;;;;5091958;28;20428;-81
2021/09/05 09:49:14;;;;;;;18.23;12.70;;;;;;;;;;5081477;28;20043;-80
2021/09/05 09:51:41;;;;;;;20.58;12.43;;;;;;;;;;5110537;28;20517;-80
2021/09/05 09:54:08;;;;;;;18.20;12.93;;;;;;;;;;5084446;28;20052;-80
2021/09/05 09:56:41;;;;;;;20.45;11.52;;;;;;;;;;5093544;28;20082;-80
2021/09/05 09:59:27;;;;;;;19.52;11.40;;;;;;;;;;5107888;28;20057;-79
2021/09/05 10:02:03;;;;;;;19.15;12.13;;;;;;;;;;5128382;28;20079;-80
2021/09/05 10:04:31;;;;;;;13.85;9.75;;;;;;;;;;5131413;27;20105;-81
2021/09/05 10:06:58;;;;;;;18.02;10.40;;;;;;;;;;5114037;28;20238;-81
2021/09/05 10:09:28;;;;;;;17.00;9.48;;;;;;;;;;5092857;28;20144;-81
2021/09/05 10:11:56;;;;;;;17.70;10.30;;;;;;;;;;5084494;28;20435;-81
2021/09/05 10:14:23;;;;;;;15.65;9.50;;;;;;;;;;5085450;28;20044;-82
2021/09/05 10:16:50;;;;;;;13.18;9.45;;;;;;;;;;5078832;28;20045;-81
2021/09/05 10:19:19;;;;;;;14.18;8.70;;;;;;;;;;5081469;28;20079;-81
2021/09/05 10:21:47;;;;;;;14.02;8.18;;;;;;;;;;5078156;28;20040;-80
2021/09/05 10:24:15;;;;;;;11.57;7.80;;;;;;;;;;5068548;28;20048;-81
2021/09/05 10:27:18;;;;;;;12.68;8.07;;;;;;;;;;5074642;28;20467;-81
2021/09/05 10:30:03;;;;;;;10.00;7.00;;;;;;;;;;4997250;28;20621;-82
2021/09/05 10:32:50;;;;;;;13.03;7.83;;;;;;;;;;5072227;28;20463;-81
2021/09/05 10:35:27;;;;;;;12.63;7.75;;;;;;;;;;5074886;28;20045;-81
2021/09/05 10:38:32;;;;;;;12.68;6.90;;;;;;;;;;5094646;28;20104;-80
2021/09/05 10:41:00;;;;;;;14.15;8.25;;;;;;;;;;5107044;28;20369;-81
2021/09/05 10:43:49;;;;;;;15.55;8.13;;;;;;;;;;5071170;28;20048;-81
2021/09/05 10:46:23;;;;;;;12.50;7.35;;;;;;;;;;5097120;28;20048;-81
2021/09/05 10:48:50;;;;;;;10.30;7.10;;;;;;;;;;5098078;28;20139;-81
2021/09/05 10:51:23;;;;;;;12.95;7.65;;;;;;;;;;5104861;28;20070;-80
2021/09/05 10:53:50;;;;;;;11.18;7.63;;;;;;;;;;5077730;28;20098;-82
2021/09/05 10:56:21;;;;;;;14.82;6.97;;;;;;;;;;5077189;28;20104;-82
2021/09/05 10:58:51;;;;;;;8.70;6.05;;;;;;;;;;5063534;28;20058;-82
2021/09/05 11:01:17;;;;;;;10.85;6.10;;;;;;;;;;5074628;28;20040;-82
2021/09/05 11:04:03;;;;;;;9.38;6.07;;;;;;;;;;5082320;28;20044;-82
2021/09/05 11:06:33;;;;;;;9.85;6.00;;;;;;;;;;5087586;28;20051;-82
2021/09/05 11:09:25;;;;;;;10.63;5.78;;;;;;;;;;5056339;28;20403;-82
2021/09/05 11:11:55;;;;;;;9.40;5.20;;;;;;;;;;5072125;28;20417;-82
2021/09/05 11:14:34;;;;;;;7.90;5.03;;;;;;;;;;5070788;28;20107;-82
2021/09/05 11:17:07;;;;;;;7.97;5.15;;;;;;;;;;5070362;28;20336;-82
2021/09/05 11:19:41;;;;;;;11.15;5.40;;;;;;;;;;5085631;28;20056;-83
2021/09/05 11:22:08;;;;;;;9.90;4.90;;;;;;;;;;5070067;28;20115;-82
2021/09/05 11:24:35;;;;;;;8.52;5.28;;;;;;;;;;5079645;28;20109;-82
2021/09/05 11:27:07;;;;;;;9.30;5.05;;;;;;;;;;5062559;28;20052;-82
2021/09/05 11:29:35;;;;;;;8.00;4.22;;;;;;;;;;5073824;28;20102;-82
2021/09/05 11:32:05;;;;;;;8.07;4.55;;;;;;;;;;5056935;28;20048;-82
2021/09/05 11:34:33;;;;;;;7.93;4.25;;;;;;;;;;5079230;28;20043;-82
2021/09/05 11:37:00;;;;;;;8.23;4.35;;;;;;;;;;5090257;28;20037;-81
2021/09/05 11:39:27;;;;;;;6.63;3.92;;;;;;;;;;5074355;28;20076;-81
2021/09/05 11:41:54;;;;;;;8.48;4.03;;;;;;;;;;5092588;28;20048;-81
2021/09/05 11:44:28;;;;;;;7.07;3.85;;;;;;;;;;5083093;28;20058;-82
2021/09/05 11:47:11;;;;;;;4.60;3.40;;;;;;;;;;5104136;28;20044;-82
2021/09/05 11:49:54;;;;;;;6.75;3.80;;;;;;;;;;5109619;28;20052;-82
2021/09/05 11:52:21;;;;;;;8.60;4.22;;;;;;;;;;5082491;28;20044;-82
2021/09/05 11:54:48;;;;;;;6.22;4.20;;;;;;;;;;5081794;28;20048;-82
2021/09/05 11:57:15;;;;;;;5.28;3.53;;;;;;;;;;5083428;28;20255;-81
2021/09/05 11:59:42;;;;;;;7.65;3.90;;;;;;;;;;5093622;28;20054;-82
2021/09/05 12:02:09;;;;;;;6.28;3.95;;;;;;;;;;5101608;28;20328;-84
2021/09/05 12:04:38;;;;;;;6.57;3.90;;;;;;;;;;5077041;28;20074;-83
2021/09/05 12:07:11;;;;;;;5.85;3.20;;;;;;;;;;5074777;28;20421;-83
2021/09/05 12:09:37;;;;;;;6.57;3.78;;;;;;;;;;5073778;28;20272;-83
2021/09/05 12:12:04;;;;;;;5.72;3.50;;;;;;;;;;5073000;28;20052;-84
2021/09/05 12:14:33;;;;;;;6.63;3.63;;;;;;;;;;5094211;28;20075;-83
2021/09/05 12:17:19;;;;;;;6.28;3.58;;;;;;;;;;5074482;28;20071;-83
2021/09/05 12:19:52;;;;;;;6.70;3.92;;;;;;;;;;5082252;28;20037;-84
2021/09/05 12:22:19;;;;;;;9.05;3.92;;;;;;;;;;5065549;28;20336;-84
2021/09/05 12:24:53;;;;;;;6.20;4.20;;;;;;;;;;5072478;28;20047;-84
2021/09/05 12:27:20;;;;;;;8.35;3.80;;;;;;;;;;5072858;28;20397;-84
2021/09/05 12:29:46;;;;;;;6.97;3.95;;;;;;;;;;5072871;28;20245;-84
2021/09/05 12:32:14;;;;;;;7.28;4.38;;;;;;;;;;5071581;28;20048;-83
2021/09/05 12:34:42;;;;;;;7.65;4.25;;;;;;;;;;5051309;28;20060;-84
2021/09/05 12:37:19;;;;;;;6.32;4.03;;;;;;;;;;5070989;28;20044;-84
2021/09/05 12:39:47;;;;;;;8.25;4.63;;;;;;;;;;5069665;28;20056;-84
2021/09/05 12:42:15;;;;;;;6.80;3.33;;;;;;;;;;5056803;28;20055;-83
2021/09/05 12:44:49;;;;;;;10.00;4.18;;;;;;;;;;5077282;28;20101;-84
2021/09/05 12:47:27;;;;;;;9.35;3.30;;;;;;;;;;5072540;28;20447;-84
2021/09/05 12:49:55;;;;;;;6.70;3.65;;;;;;;;;;5081175;28;20055;-84
2021/09/05 12:52:22;;;;;;;5.15;3.10;;;;;;;;;;5071039;28;20048;-84
2021/09/05 12:54:49;;;;;;;5.57;3.40;;;;;;;;;;5087943;28;20119;-83
2021/09/05 12:57:15;;;;;;;6.85;3.50;;;;;;;;;;5082193;28;20067;-83
2021/09/05 12:59:42;;;;;;;6.05;3.60;;;;;;;;;;5056939;28;20196;-83
2021/09/05 13:02:08;;;;;;;5.97;3.35;;;;;;;;;;5054852;28;20372;-85
2021/09/05 13:04:38;;;;;;;6.18;3.28;;;;;;;;;;5076965;28;20535;-83
2021/09/05 13:07:09;;;;;;;6.47;4.00;;;;;;;;;;5090288;28;20044;-82
2021/09/05 13:09:37;;;;;;;7.07;3.75;;;;;;;;;;5081037;28;20044;-83
2021/09/05 13:12:04;;;;;;;6.57;3.33;;;;;;;;;;5084366;28;20126;-83
2021/09/05 13:14:36;;;;;;;6.00;2.85;;;;;;;;;;5082319;28;20048;-83
2021/09/05 13:17:03;;;;;;;6.38;2.78;;;;;;;;;;5071692;28;20048;-83
2021/09/05 13:19:30;;;;;;;5.68;2.85;;;;;;;;;;5070955;28;20573;-83
2021/09/05 13:21:59;;;;;;;5.13;3.00;;;;;;;;;;5072765;28;20044;-83
2021/09/05 13:24:32;;;;;;;5.75;3.15;;;;;;;;;;5073169;28;20040;-84
2021/09/05 13:26:59;;;;;;;5.57;3.25;;;;;;;;;;5069858;28;20303;-83
2021/09/05 13:29:40;;;;;;;9.02;2.95;;;;;;;;;;5074503;28;20082;-83
2021/09/05 13:32:13;;;;;;;5.68;2.92;;;;;;;;;;5069299;28;20044;-84
2021/09/05 13:34:39;;;;;;;5.10;3.05;;;;;;;;;;5089926;28;20328;-83
2021/09/05 13:37:06;;;;;;;6.20;3.22;;;;;;;;;;5089166;28;20336;-83
2021/09/05 13:39:36;;;;;;;6.03;3.10;;;;;;;;;;5070681;28;20040;-83
2021/09/05 13:42:02;;;;;;;3.40;2.78;;;;;;;;;;5070472;28;20054;-83
2021/09/05 13:44:32;;;;;;;4.53;2.60;;;;;;;;;;5072392;28;20472;-82
2021/09/05 13:46:59;;;;;;;4.82;3.03;;;;;;;;;;5084651;28;20197;-82
2021/09/05 13:49:43;;;;;;;7.72;2.95;;;;;;;;;;5101442;28;20075;-83
2021/09/05 13:52:11;;;;;;;6.00;3.17;;;;;;;;;;5105814;28;20048;-83
2021/09/05 13:54:43;;;;;;;4.80;3.13;;;;;;;;;;5088163;27;20048;-83
2021/09/05 13:57:09;;;;;;;8.15;3.10;;;;;;;;;;5052436;28;20289;-83
2021/09/05 13:59:39;;;;;;;3.58;2.53;;;;;;;;;;5090659;28;20048;-83
2021/09/05 14:02:10;;;;;;;4.97;3.00;;;;;;;;;;5072826;28;20376;-83
2021/09/05 14:04:37;;;;;;;5.75;2.85;;;;;;;;;;5071105;28;20044;-83
2021/09/05 14:07:04;;;;;;;4.40;2.83;;;;;;;;;;5064730;28;20051;-84
2021/09/05 14:09:36;;;;;;;6.20;2.80;;;;;;;;;;5051449;28;20056;-83
2021/09/05 14:12:03;;;;;;;6.18;3.00;;;;;;;;;;5065438;28;20044;-84
2021/09/05 14:14:30;;;;;;;4.05;2.50;;;;;;;;;;5064826;28;20159;-84
2021/09/05 14:17:06;;;;;;;5.07;2.90;;;;;;;;;;5048191;28;20056;-83
2021/09/05 14:19:34;;;;;;;4.63;3.25;;;;;;;;;;5069577;28;20052;-83
2021/09/05 14:22:01;;;;;;;6.57;3.30;;;;;;;;;;5065813;28;20044;-83
2021/09/05 14:24:33;;;;;;;3.75;2.50;;;;;;;;;;5080830;28;20044;-83
2021/09/05 14:27:02;;;;;;;8.32;2.75;;;;;;;;;;5086747;28;20047;-83
2021/09/05 14:29:44;;;;;;;6.55;2.92;;;;;;;;;;5067115;28;20062;-82
2021/09/05 14:32:29;;;;;;;5.20;2.67;;;;;;;;;;5088678;28;20356;-82
2021/09/05 14:37:45;;;;;;;4.43;2.30;;;;;;;;;;5091414;28;20058;-82
2021/09/05 14:48:36;;;;;;;10.02;6.72;;;;;;;;;;5082842;28;20095;-80
2021/09/05 14:54:23;;;;;;;6.57;3.47;;;;;;;;;;5101569;28;20052;-83
2021/09/05 14:56:26;;;;;;;4.80;3.05;;;;;;;;;;5095396;28;20201;-83
2021/09/05 15:01:27;;;;;;;9.63;2.78;;;;;;;;;;5104602;28;20113;-83
2021/09/05 15:04:15;;;;;;;5.05;2.60;;;;;;;;;;5084859;28;20044;-83
2021/09/05 15:12:14;;;;;;;7.28;4.03;;;;;;;;;;5073989;28;20056;-82
2021/09/05 15:14:44;;;;;;;7.68;2.80;;;;;;;;;;5074039;28;20192;-82